Time;durP1;ratioP1;P1;durP2;ratioP2;P2;SDS_P1;SDS_P2;PMS_P1;PMS_P2;Temp;Humidity;BMP_temperature;BMP_pressure;BME280_temperature;BME280_humidity;BME280_pressure;Samples;Min_cycle;Max_cycle;Signal;HPM_P1;HPM_P2
2022/03/01 00:02:18;;;;;;;38.43;14.73;;;;;;;;;;5034755;28;20283;-49
2022/03/01 00:04:45;;;;;;;29.03;13.27;;;;;;;;;;5033805;28;20249;-52
2022/03/01 00:07:13;;;;;;;28.80;13.40;;;;;;;;;;5034611;28;20650;-51
2022/03/01 00:09:40;;;;;;;29.80;13.30;;;;;;;;;;5034671;28;20693;-50
2022/03/01 00:12:07;;;;;;;29.57;12.87;;;;;;;;;;5034696;28;20228;-50
2022/03/01 00:14:34;;;;;;;29.37;13.00;;;;;;;;;;5034799;28;20215;-52
2022/03/01 00:17:02;;;;;;;25.07;12.10;;;;;;;;;;5034579;28;20657;-51
2022/03/01 00:19:31;;;;;;;27.37;12.17;;;;;;;;;;5031325;28;20313;-51
2022/03/01 00:21:58;;;;;;;28.67;12.47;;;;;;;;;;5014843;28;20236;-50
2022/03/01 00:24:25;;;;;;;28.40;12.87;;;;;;;;;;5014956;28;20221;-54
2022/03/01 00:26:52;;;;;;;36.47;15.00;;;;;;;;;;5014905;28;20220;-50
2022/03/01 00:29:19;;;;;;;36.47;14.70;;;;;;;;;;5015441;28;20224;-49
2022/03/01 00:31:46;;;;;;;33.20;15.50;;;;;;;;;;5014711;28;20650;-50
2022/03/01 00:34:14;;;;;;;34.40;15.93;;;;;;;;;;5015121;28;20235;-51
2022/03/01 00:36:41;;;;;;;37.10;17.73;;;;;;;;;;5014932;28;20201;-53
2022/03/01 00:39:08;;;;;;;45.43;18.10;;;;;;;;;;5015750;28;20599;-50
2022/03/01 00:41:35;;;;;;;41.33;18.83;;;;;;;;;;5019020;28;20221;-53
2022/03/01 00:44:03;;;;;;;41.70;19.80;;;;;;;;;;5018768;28;20196;-53
2022/03/01 00:46:30;;;;;;;42.90;19.33;;;;;;;;;;5034074;28;20228;-49
2022/03/01 00:48:59;;;;;;;43.53;19.87;;;;;;;;;;5018758;28;20224;-50
2022/03/01 00:51:27;;;;;;;49.37;20.50;;;;;;;;;;5018675;28;20300;-53
2022/03/01 00:53:54;;;;;;;48.13;21.63;;;;;;;;;;5018813;28;20201;-54
2022/03/01 00:56:22;;;;;;;53.17;21.37;;;;;;;;;;5017441;28;20205;-52
2022/03/01 00:58:49;;;;;;;53.33;23.33;;;;;;;;;;5018553;28;20549;-50
2022/03/01 01:01:16;;;;;;;52.97;23.30;;;;;;;;;;5018312;28;20292;-52
2022/03/01 01:03:44;;;;;;;50.60;22.43;;;;;;;;;;5018463;28;20233;-52
2022/03/01 01:06:11;;;;;;;53.97;24.03;;;;;;;;;;5017429;28;20221;-51
2022/03/01 01:08:38;;;;;;;53.07;23.13;;;;;;;;;;5018099;28;20205;-50
2022/03/01 01:11:06;;;;;;;50.93;24.03;;;;;;;;;;5018358;28;20205;-52
2022/03/01 01:13:33;;;;;;;47.77;22.83;;;;;;;;;;5018250;28;20201;-53
2022/03/01 01:16:01;;;;;;;55.13;23.23;;;;;;;;;;5017877;28;20260;-51
2022/03/01 01:18:28;;;;;;;50.10;24.10;;;;;;;;;;5017916;28;20236;-51
2022/03/01 01:20:55;;;;;;;46.17;22.87;;;;;;;;;;5017869;28;20607;-53
2022/03/01 01:23:22;;;;;;;49.77;20.77;;;;;;;;;;5017850;28;20208;-53
2022/03/01 01:25:50;;;;;;;43.83;19.47;;;;;;;;;;5017140;28;20339;-54
2022/03/01 01:28:17;;;;;;;43.07;19.23;;;;;;;;;;5017990;28;20209;-53
2022/03/01 01:30:44;;;;;;;40.07;18.30;;;;;;;;;;5017657;28;20209;-54
2022/03/01 01:33:11;;;;;;;38.13;17.17;;;;;;;;;;5017564;28;20206;-51
2022/03/01 01:35:39;;;;;;;37.53;17.63;;;;;;;;;;5017960;28;20221;-49
2022/03/01 01:38:06;;;;;;;36.90;16.60;;;;;;;;;;5017588;28;20710;-53
2022/03/01 01:40:34;;;;;;;33.17;16.70;;;;;;;;;;5017765;28;20201;-49
2022/03/01 01:43:02;;;;;;;33.30;17.20;;;;;;;;;;5017602;28;20216;-58
2022/03/01 01:45:30;;;;;;;30.77;14.83;;;;;;;;;;5017209;28;20241;-48
2022/03/01 01:47:59;;;;;;;29.73;14.83;;;;;;;;;;5017528;28;20213;-48
2022/03/01 01:50:28;;;;;;;29.37;14.57;;;;;;;;;;5017974;28;20198;-52
2022/03/01 01:52:55;;;;;;;27.83;15.17;;;;;;;;;;5017249;28;20710;-52
2022/03/01 01:55:24;;;;;;;28.80;15.13;;;;;;;;;;5017485;28;20214;-50
2022/03/01 01:57:57;;;;;;;27.77;13.67;;;;;;;;;;5017454;28;20205;-53
2022/03/01 02:00:25;;;;;;;28.87;14.27;;;;;;;;;;5017079;28;20229;-52
2022/03/01 02:02:52;;;;;;;24.47;13.73;;;;;;;;;;5017029;28;20205;-51
2022/03/01 02:05:20;;;;;;;30.93;13.97;;;;;;;;;;5016946;28;20229;-49
2022/03/01 02:07:48;;;;;;;31.60;14.50;;;;;;;;;;5017528;28;20256;-49
2022/03/01 02:10:16;;;;;;;31.17;14.77;;;;;;;;;;5017097;28;20293;-52
2022/03/01 02:12:44;;;;;;;27.27;13.87;;;;;;;;;;5016150;28;20225;-48
2022/03/01 02:15:12;;;;;;;24.70;14.30;;;;;;;;;;5016805;28;20233;-49
2022/03/01 02:17:40;;;;;;;25.73;13.37;;;;;;;;;;5017068;28;20225;-49
2022/03/01 02:20:21;;;;;;;28.73;13.43;;;;;;;;;;5016765;28;20300;-53
2022/03/01 02:22:54;;;;;;;24.17;14.37;;;;;;;;;;5017084;28;20605;-51
2022/03/01 02:25:21;;;;;;;124.10;31.93;;;;;;;;;;5016790;28;20228;-49
2022/03/01 02:27:49;;;;;;;121.27;35.07;;;;;;;;;;5016644;28;20236;-53
2022/03/01 02:30:16;;;;;;;129.97;41.47;;;;;;;;;;5016864;28;20213;-50
2022/03/01 02:32:43;;;;;;;84.27;34.27;;;;;;;;;;5016585;28;20201;-49
2022/03/01 02:35:14;;;;;;;47.40;22.43;;;;;;;;;;5016792;28;20220;-50
2022/03/01 02:37:42;;;;;;;42.63;19.77;;;;;;;;;;5016431;28;20650;-49
2022/03/01 02:40:10;;;;;;;37.77;16.83;;;;;;;;;;5016576;28;20212;-52
2022/03/01 02:42:38;;;;;;;39.13;16.90;;;;;;;;;;5016486;28;20201;-51
2022/03/01 02:45:07;;;;;;;32.40;15.67;;;;;;;;;;5016180;28;20240;-50
2022/03/01 02:47:36;;;;;;;28.03;15.57;;;;;;;;;;5016282;28;20228;-52
2022/03/01 02:50:05;;;;;;;25.47;14.93;;;;;;;;;;5016625;28;20235;-50
2022/03/01 02:52:33;;;;;;;27.50;14.40;;;;;;;;;;5016059;28;20205;-49
2022/03/01 02:55:01;;;;;;;26.07;13.00;;;;;;;;;;5016494;28;20297;-50
2022/03/01 02:57:28;;;;;;;25.23;12.57;;;;;;;;;;5016159;28;20240;-50
2022/03/01 02:59:55;;;;;;;26.70;12.80;;;;;;;;;;5016327;28;20216;-51
2022/03/01 03:02:22;;;;;;;25.97;12.30;;;;;;;;;;5031269;28;20288;-49
2022/03/01 03:04:50;;;;;;;22.03;12.13;;;;;;;;;;5015959;28;20312;-50
2022/03/01 03:07:17;;;;;;;26.60;12.23;;;;;;;;;;5015848;28;20213;-53
2022/03/01 03:09:44;;;;;;;24.07;11.83;;;;;;;;;;5016149;28;20205;-48
2022/03/01 03:12:11;;;;;;;26.00;11.20;;;;;;;;;;5015757;28;20555;-54
2022/03/01 03:14:38;;;;;;;22.33;11.63;;;;;;;;;;5015713;28;20201;-53
2022/03/01 03:17:05;;;;;;;26.20;12.40;;;;;;;;;;5015748;28;20259;-55
2022/03/01 03:19:33;;;;;;;30.57;14.27;;;;;;;;;;5015923;28;20276;-50
2022/03/01 03:22:00;;;;;;;24.00;12.77;;;;;;;;;;5015674;28;20217;-51
2022/03/01 03:24:27;;;;;;;24.97;12.70;;;;;;;;;;5015666;28;20202;-51
2022/03/01 03:26:54;;;;;;;27.50;13.07;;;;;;;;;;5015913;28;20260;-51
2022/03/01 03:29:21;;;;;;;24.17;13.10;;;;;;;;;;5015791;28;20213;-50
2022/03/01 03:31:49;;;;;;;24.73;12.40;;;;;;;;;;5015472;28;20293;-49
2022/03/01 03:34:16;;;;;;;25.60;12.57;;;;;;;;;;5015529;28;20268;-51
2022/03/01 03:36:44;;;;;;;25.00;12.23;;;;;;;;;;5015375;28;20225;-51
2022/03/01 03:39:11;;;;;;;23.17;11.77;;;;;;;;;;5016107;28;20219;-48
2022/03/01 03:41:39;;;;;;;23.90;12.23;;;;;;;;;;5015420;28;20237;-49
2022/03/01 03:44:06;;;;;;;22.90;11.77;;;;;;;;;;5015474;28;20212;-51
2022/03/01 03:46:34;;;;;;;28.50;12.57;;;;;;;;;;5015220;28;20705;-48
2022/03/01 03:49:03;;;;;;;20.63;11.30;;;;;;;;;;5015718;28;20205;-51
2022/03/01 03:51:30;;;;;;;27.07;11.77;;;;;;;;;;5015329;28;20285;-51
2022/03/01 03:53:57;;;;;;;22.43;11.73;;;;;;;;;;5015349;28;20236;-49
2022/03/01 03:56:24;;;;;;;23.70;12.00;;;;;;;;;;5015246;28;20295;-49
2022/03/01 03:58:52;;;;;;;20.43;11.23;;;;;;;;;;5014207;28;20296;-53
2022/03/01 04:01:19;;;;;;;23.13;10.93;;;;;;;;;;5014984;28;20206;-49
2022/03/01 04:03:47;;;;;;;25.07;12.53;;;;;;;;;;5014901;28;20655;-50
2022/03/01 04:06:14;;;;;;;24.30;12.63;;;;;;;;;;5015075;28;20229;-50
2022/03/01 04:08:41;;;;;;;28.70;13.37;;;;;;;;;;5014841;28;20292;-52
2022/03/01 04:11:08;;;;;;;22.40;12.53;;;;;;;;;;5014897;28;20247;-50
2022/03/01 04:13:35;;;;;;;22.93;12.57;;;;;;;;;;5014254;28;20215;-52
2022/03/01 04:16:03;;;;;;;33.20;13.33;;;;;;;;;;5014719;28;20232;-49
2022/03/01 04:18:30;;;;;;;22.60;12.17;;;;;;;;;;5014856;28;20228;-49
2022/03/01 04:20:57;;;;;;;29.20;13.27;;;;;;;;;;5015048;28;20547;-50
2022/03/01 04:23:24;;;;;;;24.77;12.53;;;;;;;;;;5015004;28;20208;-53
2022/03/01 04:25:52;;;;;;;25.83;12.30;;;;;;;;;;5014892;28;20740;-49
2022/03/01 04:28:19;;;;;;;24.37;11.97;;;;;;;;;;5014671;28;20653;-49
2022/03/01 04:30:46;;;;;;;27.10;12.87;;;;;;;;;;5014690;28;20502;-53
2022/03/01 04:33:13;;;;;;;27.10;12.97;;;;;;;;;;5014630;28;20243;-51
2022/03/01 04:35:40;;;;;;;19.87;11.17;;;;;;;;;;5014674;28;20547;-50
2022/03/01 04:38:07;;;;;;;24.10;11.73;;;;;;;;;;5014866;28;20231;-50
2022/03/01 04:40:35;;;;;;;28.13;11.53;;;;;;;;;;5014572;28;20239;-55
2022/03/01 04:43:02;;;;;;;27.53;13.77;;;;;;;;;;5014458;28;20704;-57
2022/03/01 04:45:30;;;;;;;25.40;12.57;;;;;;;;;;5013571;28;20547;-57
2022/03/01 04:47:58;;;;;;;20.23;11.23;;;;;;;;;;5014410;28;20209;-58
2022/03/01 04:50:26;;;;;;;22.40;11.23;;;;;;;;;;5029694;28;20201;-58
2022/03/01 04:52:53;;;;;;;20.87;11.43;;;;;;;;;;5014236;28;20236;-56
2022/03/01 04:55:20;;;;;;;21.13;11.13;;;;;;;;;;5014146;28;20205;-57
2022/03/01 04:57:47;;;;;;;21.77;10.57;;;;;;;;;;5009376;28;20276;-52
2022/03/01 05:00:15;;;;;;;19.60;10.83;;;;;;;;;;5013615;28;20229;-51
2022/03/01 05:02:44;;;;;;;20.93;9.97;;;;;;;;;;5013107;28;20256;-57
2022/03/01 05:05:13;;;;;;;21.17;9.40;;;;;;;;;;5013583;28;20324;-56
2022/03/01 05:07:42;;;;;;;20.53;10.10;;;;;;;;;;5013140;28;20217;-50
2022/03/01 05:10:11;;;;;;;20.17;9.77;;;;;;;;;;5013572;28;20284;-53
2022/03/01 05:12:43;;;;;;;22.30;10.90;;;;;;;;;;5012724;28;20237;-56
2022/03/01 05:15:10;;;;;;;19.27;11.33;;;;;;;;;;5013731;28;20256;-55
2022/03/01 05:17:38;;;;;;;26.03;10.47;;;;;;;;;;5013039;28;20229;-53
2022/03/01 05:20:06;;;;;;;21.60;10.67;;;;;;;;;;5013453;28;20237;-53
2022/03/01 05:22:36;;;;;;;27.10;12.40;;;;;;;;;;5012913;28;20253;-51
2022/03/01 05:25:04;;;;;;;24.27;11.97;;;;;;;;;;5014564;28;20249;-50
2022/03/01 05:27:31;;;;;;;22.87;11.77;;;;;;;;;;5016015;28;20324;-53
2022/03/01 05:29:59;;;;;;;28.43;12.77;;;;;;;;;;5017137;28;20260;-50
2022/03/01 05:32:27;;;;;;;24.90;13.10;;;;;;;;;;5016632;28;20316;-53
2022/03/01 05:34:54;;;;;;;23.97;12.37;;;;;;;;;;5017050;28;20287;-57
2022/03/01 05:37:21;;;;;;;22.43;11.90;;;;;;;;;;5016759;28;20252;-60
2022/03/01 05:39:48;;;;;;;21.30;10.63;;;;;;;;;;5016615;28;20307;-54
2022/03/01 05:42:15;;;;;;;23.90;11.67;;;;;;;;;;5015552;28;20575;-57
2022/03/01 05:44:43;;;;;;;19.80;11.17;;;;;;;;;;5015603;28;20334;-56
2022/03/01 05:47:10;;;;;;;24.93;10.77;;;;;;;;;;5016469;28;20363;-57
2022/03/01 05:49:38;;;;;;;23.20;9.87;;;;;;;;;;5015976;28;20225;-49
2022/03/01 05:52:05;;;;;;;21.33;9.33;;;;;;;;;;5015864;28;20367;-50
2022/03/01 05:54:32;;;;;;;19.87;9.57;;;;;;;;;;5016598;28;20233;-57
2022/03/01 05:57:00;;;;;;;19.07;9.63;;;;;;;;;;5016064;28;20240;-52
2022/03/01 05:59:27;;;;;;;19.10;9.67;;;;;;;;;;5016523;28;20253;-58
2022/03/01 06:01:54;;;;;;;17.80;9.77;;;;;;;;;;5016497;28;20221;-57
2022/03/01 06:04:21;;;;;;;18.37;10.00;;;;;;;;;;5016485;28;20299;-50
2022/03/01 06:06:49;;;;;;;21.70;10.60;;;;;;;;;;5015581;28;20761;-53
2022/03/01 06:09:16;;;;;;;19.20;10.47;;;;;;;;;;5016480;28;20620;-54
2022/03/01 06:11:43;;;;;;;23.67;13.03;;;;;;;;;;5015462;28;20327;-60
2022/03/01 06:14:10;;;;;;;29.07;14.23;;;;;;;;;;5016426;28;20268;-49
2022/03/01 06:16:38;;;;;;;25.50;15.87;;;;;;;;;;5016491;28;20609;-53
2022/03/01 06:19:06;;;;;;;27.13;15.80;;;;;;;;;;5016173;28;20229;-58
2022/03/01 06:21:34;;;;;;;32.57;17.03;;;;;;;;;;5016108;28;20694;-55
2022/03/01 06:24:02;;;;;;;30.63;17.07;;;;;;;;;;5016176;28;20252;-52
2022/03/01 06:26:30;;;;;;;29.60;16.93;;;;;;;;;;5015164;28;20322;-55
2022/03/01 06:28:57;;;;;;;43.10;21.77;;;;;;;;;;5016069;28;20261;-54
2022/03/01 06:31:24;;;;;;;36.03;20.17;;;;;;;;;;5016468;28;20202;-51
2022/03/01 06:33:51;;;;;;;35.37;19.60;;;;;;;;;;5016560;28;20669;-57
2022/03/01 06:36:18;;;;;;;43.17;24.57;;;;;;;;;;5015985;28;20252;-52
2022/03/01 06:38:45;;;;;;;39.33;22.10;;;;;;;;;;5016211;28;20240;-56
2022/03/01 06:41:12;;;;;;;41.93;22.47;;;;;;;;;;5016315;28;20237;-54
2022/03/01 06:43:40;;;;;;;43.00;25.73;;;;;;;;;;5016565;28;20641;-55
2022/03/01 06:46:08;;;;;;;39.13;22.47;;;;;;;;;;5016250;28;20233;-55
2022/03/01 06:48:35;;;;;;;45.00;22.63;;;;;;;;;;5017096;28;20284;-54
2022/03/01 06:51:03;;;;;;;35.30;20.43;;;;;;;;;;5015321;28;20202;-54
2022/03/01 06:53:30;;;;;;;32.87;18.63;;;;;;;;;;5016299;28;20201;-54
2022/03/01 06:55:57;;;;;;;36.17;19.33;;;;;;;;;;5016240;28;20211;-56
2022/03/01 06:58:24;;;;;;;31.97;17.83;;;;;;;;;;5016376;28;20236;-54
2022/03/01 07:00:51;;;;;;;27.50;16.10;;;;;;;;;;5016972;28;20206;-53
2022/03/01 07:03:19;;;;;;;29.80;16.07;;;;;;;;;;5016023;28;20650;-56
2022/03/01 07:05:46;;;;;;;28.57;15.30;;;;;;;;;;5015906;28;20277;-57
2022/03/01 07:08:13;;;;;;;16.67;9.57;;;;;;;;;;5016562;28;20300;-55
2022/03/01 07:10:41;;;;;;;24.17;14.53;;;;;;;;;;5015831;28;20216;-55
2022/03/01 07:13:08;;;;;;;24.50;14.10;;;;;;;;;;5016071;28;21215;-54
2022/03/01 07:15:37;;;;;;;21.53;11.17;;;;;;;;;;5015760;28;20201;-58
2022/03/01 07:18:04;;;;;;;20.73;12.00;;;;;;;;;;5016076;28;20216;-57
2022/03/01 07:20:32;;;;;;;26.53;11.70;;;;;;;;;;5015670;28;20240;-55
2022/03/01 07:22:59;;;;;;;23.60;13.93;;;;;;;;;;5015640;28;20674;-53
2022/03/01 07:25:26;;;;;;;25.30;14.07;;;;;;;;;;5015842;28;20206;-57
2022/03/01 07:27:54;;;;;;;29.87;13.93;;;;;;;;;;5015501;28;20229;-55
2022/03/01 07:30:24;;;;;;;28.33;15.23;;;;;;;;;;5015501;28;20288;-56
2022/03/01 07:32:56;;;;;;;27.00;14.53;;;;;;;;;;5015880;28;20572;-55
2022/03/01 07:35:25;;;;;;;29.37;15.13;;;;;;;;;;4998868;28;20205;-51
2022/03/01 07:37:52;;;;;;;28.87;13.33;;;;;;;;;;5015707;28;20300;-55
2022/03/01 07:40:21;;;;;;;27.37;14.20;;;;;;;;;;5015292;28;20212;-55
2022/03/01 07:42:50;;;;;;;23.17;14.50;;;;;;;;;;5015955;28;20237;-57
2022/03/01 07:45:17;;;;;;;30.90;16.27;;;;;;;;;;5014702;28;20267;-54
2022/03/01 07:47:45;;;;;;;26.53;14.90;;;;;;;;;;5015244;28;20224;-55
2022/03/01 07:50:12;;;;;;;19.80;11.63;;;;;;;;;;5015617;28;20232;-56
2022/03/01 07:52:39;;;;;;;23.17;12.03;;;;;;;;;;5015308;28;20296;-57
2022/03/01 07:55:07;;;;;;;24.47;11.97;;;;;;;;;;5015133;28;20710;-57
2022/03/01 07:57:34;;;;;;;21.73;11.53;;;;;;;;;;5015152;28;20240;-56
2022/03/01 08:00:02;;;;;;;19.43;11.03;;;;;;;;;;5015326;28;20580;-56
2022/03/01 08:02:39;;;;;;;21.17;11.20;;;;;;;;;;5014621;28;20197;-57
2022/03/01 08:05:08;;;;;;;24.00;12.43;;;;;;;;;;5014994;28;20256;-57
2022/03/01 08:07:48;;;;;;;23.70;12.67;;;;;;;;;;5014998;28;20237;-58
2022/03/01 08:10:15;;;;;;;25.63;9.73;;;;;;;;;;5015045;28;20225;-57
2022/03/01 08:12:42;;;;;;;19.60;11.50;;;;;;;;;;5015125;28;20206;-57
2022/03/01 08:15:10;;;;;;;23.33;11.37;;;;;;;;;;5015080;28;20240;-56
2022/03/01 08:17:46;;;;;;;20.10;10.60;;;;;;;;;;5014155;28;20204;-57
2022/03/01 08:20:13;;;;;;;16.17;9.63;;;;;;;;;;5015356;28;20585;-56
2022/03/01 08:22:40;;;;;;;22.70;11.37;;;;;;;;;;5014972;28;20283;-55
2022/03/01 08:25:08;;;;;;;18.93;10.67;;;;;;;;;;5014907;28;20225;-56
2022/03/01 08:27:36;;;;;;;22.80;12.37;;;;;;;;;;5014654;28;20256;-57
2022/03/01 08:30:05;;;;;;;20.57;11.37;;;;;;;;;;5014919;28;20221;-57
2022/03/01 08:32:33;;;;;;;25.40;11.93;;;;;;;;;;5014677;28;20216;-59
2022/03/01 08:35:00;;;;;;;22.33;10.77;;;;;;;;;;5015284;28;20653;-58
2022/03/01 08:37:28;;;;;;;24.10;11.97;;;;;;;;;;5014921;28;20229;-58
2022/03/01 08:39:58;;;;;;;21.80;10.87;;;;;;;;;;5015173;28;20231;-58
2022/03/01 08:42:25;;;;;;;19.47;10.43;;;;;;;;;;5014623;28;20224;-57
2022/03/01 08:44:52;;;;;;;19.63;9.87;;;;;;;;;;5014767;28;20202;-57
2022/03/01 08:47:19;;;;;;;24.30;12.33;;;;;;;;;;5014831;28;20619;-57
2022/03/01 08:49:46;;;;;;;23.10;12.77;;;;;;;;;;5014518;28;20232;-58
2022/03/01 08:52:14;;;;;;;20.83;9.57;;;;;;;;;;5014957;28;20229;-57
2022/03/01 08:54:41;;;;;;;24.23;11.87;;;;;;;;;;5014598;28;20198;-58
2022/03/01 08:57:09;;;;;;;17.37;9.83;;;;;;;;;;5014398;28;20244;-58
2022/03/01 08:59:36;;;;;;;20.00;9.77;;;;;;;;;;5014594;28;20229;-57
2022/03/01 09:02:03;;;;;;;20.53;10.97;;;;;;;;;;5018199;28;20205;-58
2022/03/01 09:04:31;;;;;;;20.30;10.50;;;;;;;;;;5018254;28;20231;-58
2022/03/01 09:06:58;;;;;;;18.67;8.90;;;;;;;;;;5018037;28;20221;-58
2022/03/01 09:09:25;;;;;;;20.67;9.40;;;;;;;;;;5018480;28;20205;-59
2022/03/01 09:11:52;;;;;;;17.20;8.53;;;;;;;;;;5018310;28;20680;-56
2022/03/01 09:14:19;;;;;;;16.93;8.33;;;;;;;;;;5018045;28;20233;-57
2022/03/01 09:16:47;;;;;;;17.57;9.17;;;;;;;;;;5018457;28;20201;-58
2022/03/01 09:19:14;;;;;;;18.30;9.40;;;;;;;;;;5018259;28;20299;-58
2022/03/01 09:21:42;;;;;;;13.30;8.00;;;;;;;;;;5018155;28;20281;-57
2022/03/01 09:24:09;;;;;;;15.13;8.20;;;;;;;;;;5017878;28;20212;-60
2022/03/01 09:26:37;;;;;;;16.43;7.73;;;;;;;;;;5018244;28;20212;-58
2022/03/01 09:29:04;;;;;;;15.93;8.20;;;;;;;;;;5018048;28;20197;-56
2022/03/01 09:31:31;;;;;;;16.27;8.50;;;;;;;;;;5017980;28;20260;-58
2022/03/01 09:33:59;;;;;;;14.57;6.53;;;;;;;;;;5017694;28;20236;-58
2022/03/01 09:36:26;;;;;;;16.53;8.13;;;;;;;;;;5017706;28;20205;-58
2022/03/01 09:38:53;;;;;;;10.90;6.13;;;;;;;;;;5017790;28;20205;-58
2022/03/01 09:41:20;;;;;;;13.47;7.07;;;;;;;;;;5017791;28;20339;-58
2022/03/01 09:43:49;;;;;;;15.63;7.17;;;;;;;;;;5017544;28;20689;-59
2022/03/01 09:46:16;;;;;;;18.83;7.87;;;;;;;;;;5017561;28;20257;-58
2022/03/01 09:48:43;;;;;;;11.97;6.87;;;;;;;;;;5017560;28;20256;-59
2022/03/01 09:51:11;;;;;;;17.13;7.37;;;;;;;;;;5017472;28;20205;-59
2022/03/01 09:53:40;;;;;;;12.10;6.53;;;;;;;;;;5016825;28;20194;-59
2022/03/01 09:56:09;;;;;;;13.83;6.10;;;;;;;;;;5017296;28;20654;-58
2022/03/01 09:58:36;;;;;;;14.70;6.77;;;;;;;;;;5017562;28;20232;-58
2022/03/01 10:01:03;;;;;;;15.23;7.10;;;;;;;;;;5017147;28;20662;-58
2022/03/01 10:03:36;;;;;;;13.40;7.60;;;;;;;;;;5017492;28;20225;-58
2022/03/01 10:06:11;;;;;;;13.13;6.43;;;;;;;;;;5017726;28;20288;-58
2022/03/01 10:08:39;;;;;;;12.20;6.67;;;;;;;;;;5017896;28;20233;-58
2022/03/01 10:11:07;;;;;;;16.17;7.00;;;;;;;;;;5016495;28;20272;-57
2022/03/01 10:13:36;;;;;;;14.13;7.67;;;;;;;;;;5016693;28;20678;-58
2022/03/01 10:16:09;;;;;;;15.83;6.80;;;;;;;;;;5017332;28;20229;-58
2022/03/01 10:18:41;;;;;;;12.33;6.97;;;;;;;;;;5017050;28;20686;-57
2022/03/01 10:21:11;;;;;;;14.43;7.67;;;;;;;;;;5017238;28;20229;-58
2022/03/01 10:23:41;;;;;;;11.33;6.37;;;;;;;;;;5017053;28;20202;-58
2022/03/01 10:26:15;;;;;;;14.60;6.93;;;;;;;;;;5016276;28;20212;-58
2022/03/01 10:28:43;;;;;;;17.03;6.90;;;;;;;;;;5016878;28;20252;-58
2022/03/01 10:31:20;;;;;;;10.53;5.57;;;;;;;;;;5016605;28;20210;-59
2022/03/01 10:33:57;;;;;;;12.87;6.70;;;;;;;;;;5017131;28;20579;-57
2022/03/01 10:36:25;;;;;;;9.87;5.67;;;;;;;;;;5016719;28;20267;-57
2022/03/01 10:39:08;;;;;;;11.27;5.90;;;;;;;;;;5016690;28;20233;-57
2022/03/01 10:41:38;;;;;;;7.17;3.90;;;;;;;;;;5016748;28;20193;-58
2022/03/01 10:44:06;;;;;;;7.77;4.30;;;;;;;;;;5016428;28;20221;-57
2022/03/01 10:46:41;;;;;;;7.33;4.80;;;;;;;;;;5016246;28;20229;-58
2022/03/01 10:49:14;;;;;;;6.83;4.13;;;;;;;;;;5016496;28;20614;-56
2022/03/01 10:52:08;;;;;;;8.73;4.47;;;;;;;;;;5016307;28;20220;-58
2022/03/01 10:54:40;;;;;;;7.43;4.37;;;;;;;;;;5014689;28;20240;-57
2022/03/01 10:57:12;;;;;;;7.67;4.20;;;;;;;;;;5016689;28;20201;-58
2022/03/01 10:59:40;;;;;;;7.57;4.00;;;;;;;;;;5015680;28;20292;-58
2022/03/01 11:02:07;;;;;;;8.83;4.10;;;;;;;;;;5016040;28;20536;-59
2022/03/01 11:04:34;;;;;;;10.43;4.50;;;;;;;;;;5015122;28;20635;-57
2022/03/01 11:07:04;;;;;;;7.43;3.70;;;;;;;;;;5015948;28;20267;-58
2022/03/01 11:09:32;;;;;;;8.70;4.93;;;;;;;;;;5016179;28;20240;-57
2022/03/01 11:12:01;;;;;;;7.50;4.67;;;;;;;;;;5016033;28;20208;-57
2022/03/01 11:14:35;;;;;;;8.17;4.27;;;;;;;;;;5015888;28;20205;-58
2022/03/01 11:17:27;;;;;;;8.83;4.63;;;;;;;;;;5016120;28;20216;-57
2022/03/01 11:20:00;;;;;;;8.73;5.10;;;;;;;;;;5015664;28;20232;-58
2022/03/01 11:22:33;;;;;;;11.13;5.80;;;;;;;;;;5015759;28;20217;-59
2022/03/01 11:25:00;;;;;;;10.00;5.00;;;;;;;;;;5015847;28;20233;-56
2022/03/01 11:27:28;;;;;;;9.40;5.70;;;;;;;;;;5014663;28;20666;-58
2022/03/01 11:30:09;;;;;;;11.87;5.43;;;;;;;;;;5015796;28;20271;-57
2022/03/01 11:32:46;;;;;;;8.33;4.87;;;;;;;;;;5015880;28;20213;-56
2022/03/01 11:35:20;;;;;;;10.30;6.10;;;;;;;;;;5015744;28;20208;-57
2022/03/01 11:38:00;;;;;;;12.47;5.53;;;;;;;;;;5015433;28;20240;-58
2022/03/01 11:40:31;;;;;;;12.13;5.63;;;;;;;;;;5015710;28;20215;-58
2022/03/01 11:43:22;;;;;;;11.50;5.73;;;;;;;;;;5015832;28;20248;-58
2022/03/01 11:45:53;;;;;;;9.50;5.33;;;;;;;;;;5015272;28;20328;-58
2022/03/01 11:48:22;;;;;;;9.73;5.47;;;;;;;;;;5015282;28;20694;-57
2022/03/01 11:50:55;;;;;;;11.17;5.80;;;;;;;;;;5015742;28;20375;-58
2022/03/01 11:53:25;;;;;;;11.57;5.30;;;;;;;;;;5015468;28;20243;-58
2022/03/01 11:55:57;;;;;;;11.60;5.27;;;;;;;;;;5015275;28;20198;-58
2022/03/01 11:58:25;;;;;;;10.70;4.90;;;;;;;;;;5015221;28;20535;-59
2022/03/01 12:00:53;;;;;;;12.73;5.77;;;;;;;;;;5015458;28;20554;-58
2022/03/01 12:03:23;;;;;;;8.43;4.63;;;;;;;;;;5015006;28;20214;-58
2022/03/01 12:05:51;;;;;;;10.13;5.20;;;;;;;;;;5014618;28;20217;-58
2022/03/01 12:08:19;;;;;;;11.30;5.43;;;;;;;;;;5015224;28;20249;-58
2022/03/01 12:11:00;;;;;;;12.67;5.50;;;;;;;;;;5015205;28;20300;-57
2022/03/01 12:13:39;;;;;;;12.77;5.47;;;;;;;;;;5014969;28;20225;-59
2022/03/01 12:16:07;;;;;;;11.07;5.80;;;;;;;;;;5015074;28;20201;-58
2022/03/01 12:18:37;;;;;;;11.30;6.00;;;;;;;;;;5014460;28;20600;-58
2022/03/01 12:21:10;;;;;;;8.10;5.20;;;;;;;;;;5014804;28;20650;-57
2022/03/01 12:23:42;;;;;;;11.33;5.77;;;;;;;;;;5015556;28;20189;-59
2022/03/01 12:26:11;;;;;;;9.80;5.30;;;;;;;;;;5015429;28;20217;-58
2022/03/01 12:28:44;;;;;;;10.80;5.60;;;;;;;;;;5014960;28;20271;-58
2022/03/01 12:31:14;;;;;;;9.87;5.17;;;;;;;;;;5015094;28;20236;-58
2022/03/01 12:33:48;;;;;;;10.20;4.87;;;;;;;;;;5015077;28;20236;-58
2022/03/01 12:36:26;;;;;;;12.70;5.60;;;;;;;;;;5017593;28;20186;-56
2022/03/01 12:39:06;;;;;;;8.87;5.77;;;;;;;;;;5018750;28;20233;-59
2022/03/01 12:41:40;;;;;;;8.47;4.57;;;;;;;;;;5018724;28;20344;-58
2022/03/01 12:44:12;;;;;;;9.00;4.73;;;;;;;;;;5018833;28;20298;-59
2022/03/01 12:46:41;;;;;;;8.03;4.73;;;;;;;;;;5018622;28;20237;-56
2022/03/01 12:49:11;;;;;;;14.30;5.60;;;;;;;;;;5019248;28;20308;-53
2022/03/01 12:51:39;;;;;;;12.40;5.73;;;;;;;;;;5012452;28;20239;-59
2022/03/01 12:54:11;;;;;;;7.30;4.90;;;;;;;;;;5017741;28;20237;-54
2022/03/01 12:56:40;;;;;;;9.77;5.27;;;;;;;;;;5017670;28;20229;-57
2022/03/01 12:59:16;;;;;;;9.23;4.93;;;;;;;;;;5017547;28;20275;-57
2022/03/01 13:01:52;;;;;;;11.27;4.83;;;;;;;;;;5017458;28;20333;-59
2022/03/01 13:04:22;;;;;;;11.27;6.13;;;;;;;;;;5017852;28;20256;-56
2022/03/01 13:06:50;;;;;;;8.53;5.07;;;;;;;;;;5016203;28;20287;-58
2022/03/01 13:09:18;;;;;;;10.33;5.20;;;;;;;;;;5017504;28;20305;-57
2022/03/01 13:11:45;;;;;;;10.00;5.70;;;;;;;;;;5015676;28;20225;-59
2022/03/01 13:14:18;;;;;;;7.97;4.80;;;;;;;;;;5016684;28;20308;-59
2022/03/01 13:16:48;;;;;;;9.20;4.97;;;;;;;;;;5017317;28;20237;-59
2022/03/01 13:19:17;;;;;;;9.43;5.17;;;;;;;;;;5017132;28;20252;-60
2022/03/01 13:21:44;;;;;;;9.57;4.67;;;;;;;;;;5016856;28;20221;-60
2022/03/01 13:24:17;;;;;;;12.13;6.03;;;;;;;;;;5017266;28;20288;-59
2022/03/01 13:26:45;;;;;;;11.20;5.90;;;;;;;;;;5016459;28;20232;-59
2022/03/01 13:29:17;;;;;;;10.87;5.43;;;;;;;;;;5017256;28;20265;-59
2022/03/01 13:31:45;;;;;;;10.33;4.83;;;;;;;;;;5026322;28;20256;-56
2022/03/01 13:34:18;;;;;;;8.40;4.20;;;;;;;;;;5012865;28;20247;-59
2022/03/01 13:36:51;;;;;;;8.40;5.23;;;;;;;;;;5016519;28;20316;-58
2022/03/01 13:39:20;;;;;;;9.77;5.70;;;;;;;;;;5012330;28;20229;-59
2022/03/01 13:41:53;;;;;;;9.53;5.77;;;;;;;;;;5016840;28;20671;-59
2022/03/01 13:44:26;;;;;;;11.03;6.00;;;;;;;;;;5017021;28;20249;-59
2022/03/01 13:47:00;;;;;;;10.57;5.90;;;;;;;;;;5016370;28;20279;-61
2022/03/01 13:49:35;;;;;;;10.33;5.57;;;;;;;;;;5016397;28;20237;-62
2022/03/01 13:52:17;;;;;;;12.10;5.77;;;;;;;;;;5016703;28;20260;-60
2022/03/01 13:54:47;;;;;;;12.43;6.53;;;;;;;;;;5016903;28;20237;-60
2022/03/01 13:57:42;;;;;;;12.90;6.90;;;;;;;;;;5016577;28;20284;-59
2022/03/01 14:00:11;;;;;;;12.80;7.20;;;;;;;;;;5018488;28;20227;-59
2022/03/01 14:02:48;;;;;;;11.73;6.73;;;;;;;;;;5021446;28;20221;-60
2022/03/01 14:05:18;;;;;;;10.77;5.93;;;;;;;;;;5015052;28;20674;-59
2022/03/01 14:08:03;;;;;;;13.13;6.57;;;;;;;;;;5016166;28;20264;-60
2022/03/01 14:10:32;;;;;;;15.27;6.43;;;;;;;;;;5018610;28;20225;-59
2022/03/01 14:13:16;;;;;;;21.40;10.03;;;;;;;;;;5015595;28;20253;-59
2022/03/01 14:15:50;;;;;;;20.90;9.30;;;;;;;;;;5023066;28;20228;-59
2022/03/01 14:18:19;;;;;;;12.30;7.03;;;;;;;;;;5035775;28;20256;-60
2022/03/01 14:20:49;;;;;;;14.00;7.30;;;;;;;;;;5030156;28;20611;-60
2022/03/01 14:23:19;;;;;;;12.37;6.63;;;;;;;;;;5023326;28;20339;-59
2022/03/01 14:25:47;;;;;;;19.07;8.03;;;;;;;;;;5035659;28;20228;-60
2022/03/01 14:28:14;;;;;;;17.00;8.70;;;;;;;;;;5035417;28;20676;-59
2022/03/01 14:30:41;;;;;;;17.93;8.30;;;;;;;;;;5035838;28;20333;-60
2022/03/01 14:33:09;;;;;;;12.43;6.73;;;;;;;;;;5027185;28;20229;-60
2022/03/01 14:35:36;;;;;;;12.23;6.70;;;;;;;;;;5014111;28;20259;-59